createdAt,value
2018-09-18T00:00:14.792Z,4.40
2018-09-18T00:01:14.777Z,4.90
2018-09-18T00:02:15.112Z,4.60
2018-09-18T00:03:14.765Z,4.50
2018-09-18T00:04:14.749Z,4.40
2018-09-18T00:05:14.754Z,4.70
2018-09-18T00:06:14.740Z,4.60
2018-09-18T00:07:14.737Z,4.60
2018-09-18T00:08:14.712Z,4.60
2018-09-18T00:09:14.755Z,5.00
2018-09-18T00:10:14.697Z,4.80
2018-09-18T00:11:14.693Z,4.70
2018-09-18T00:12:14.678Z,4.70
2018-09-18T00:13:14.678Z,5.10
2018-09-18T00:14:14.672Z,5.10
2018-09-18T00:15:14.658Z,5.10
2018-09-18T00:16:14.988Z,5.10
2018-09-18T00:17:14.636Z,5.00
2018-09-18T00:18:14.628Z,4.60
2018-09-18T00:19:14.629Z,4.90
2018-09-18T00:20:14.618Z,5.30
2018-09-18T00:21:14.605Z,5.30
2018-09-18T00:22:14.954Z,5.70
2018-09-18T00:23:14.597Z,4.70
2018-09-18T00:24:14.942Z,5.20
2018-09-18T00:25:14.595Z,5.10
2018-09-18T00:26:14.908Z,4.90
2018-09-18T00:27:14.892Z,5.40
2018-09-18T00:28:14.546Z,4.40
2018-09-18T00:29:14.532Z,5.20
2018-09-18T00:31:47.403Z,5.10
2018-09-18T00:32:46.578Z,5.60
2018-09-18T00:34:40.264Z,5.10
2018-09-18T00:35:39.915Z,5.40
2018-09-18T00:37:33.908Z,5.20
2018-09-18T00:38:33.247Z,5.00
2018-09-18T00:40:26.604Z,4.80
2018-09-18T00:41:26.588Z,5.40
2018-09-18T00:43:20.202Z,5.20
2018-09-18T00:44:20.286Z,5.50
2018-09-18T00:46:12.801Z,5.30
2018-09-18T00:47:13.125Z,4.80
2018-09-18T00:49:06.363Z,5.70
2018-09-18T00:50:06.126Z,5.30
2018-09-18T00:51:59.907Z,5.10
2018-09-18T00:52:59.470Z,5.30
2018-09-18T00:54:52.946Z,5.10
2018-09-18T00:55:52.814Z,5.30
2018-09-18T00:57:46.166Z,5.20
2018-09-18T00:58:46.146Z,5.40
2018-09-18T01:00:40.063Z,5.10
2018-09-18T01:01:39.527Z,5.20
2018-09-18T01:03:33.184Z,5.60
2018-09-18T01:04:32.830Z,5.50
2018-09-18T01:06:26.379Z,5.10
2018-09-18T01:07:26.513Z,5.40
2018-09-18T01:09:19.630Z,5.30
2018-09-18T01:10:19.856Z,5.30
2018-09-18T01:12:13.004Z,5.00
2018-09-18T01:13:13.191Z,5.40
2018-09-18T01:15:06.564Z,5.20
2018-09-18T01:16:06.247Z,5.50
2018-09-18T01:17:59.785Z,6.00
2018-09-18T01:18:59.907Z,5.80
2018-09-18T01:20:52.915Z,5.70
2018-09-18T01:21:52.912Z,5.60
2018-09-18T01:23:46.555Z,5.40
2018-09-18T01:24:46.233Z,5.40
2018-09-18T01:26:39.178Z,5.30
2018-09-18T01:27:39.428Z,5.60
2018-09-18T01:29:32.758Z,5.40
2018-09-18T01:30:32.431Z,5.80
2018-09-18T01:33:58.145Z,5.40
2018-09-18T01:34:58.038Z,5.50
2018-09-18T01:36:52.001Z,5.80
2018-09-18T01:37:51.716Z,5.90
2018-09-18T01:39:45.319Z,5.70
2018-09-18T01:40:44.714Z,5.20
2018-09-18T01:42:38.886Z,5.90
2018-09-18T01:43:38.106Z,5.10
2018-09-18T01:45:31.506Z,5.40
2018-09-18T01:46:31.388Z,5.30
2018-09-18T01:48:24.934Z,5.30
2018-09-18T01:49:24.726Z,4.80
2018-09-18T01:51:18.084Z,5.10
2018-09-18T01:52:18.072Z,5.60
2018-09-18T01:54:11.649Z,4.90
2018-09-18T01:55:11.408Z,4.90
2018-09-18T01:57:05.102Z,5.20
2018-09-18T01:58:04.758Z,5.30
2018-09-18T01:59:58.367Z,5.70
2018-09-18T02:00:58.144Z,5.00
2018-09-18T02:02:51.830Z,5.00
2018-09-18T02:03:51.849Z,5.00
2018-09-18T02:05:45.058Z,4.80
2018-09-18T02:06:44.821Z,4.90
2018-09-18T02:08:38.177Z,5.50
2018-09-18T02:09:38.163Z,5.20
2018-09-18T02:11:31.743Z,5.10
2018-09-18T02:12:31.503Z,4.80
2018-09-18T02:14:24.860Z,5.00
2018-09-18T02:15:24.865Z,4.90
2018-09-18T02:17:18.438Z,4.60
2018-09-18T02:18:18.528Z,4.70
2018-09-18T02:20:11.528Z,5.50
2018-09-18T02:21:11.518Z,4.90
2018-09-18T02:23:05.130Z,4.80
2018-09-18T02:24:04.868Z,5.00
2018-09-18T02:25:58.209Z,5.40
2018-09-18T02:26:58.201Z,5.00
2018-09-18T02:28:52.170Z,5.00
2018-09-18T02:29:51.913Z,4.80
2018-09-18T02:31:44.897Z,4.70
2018-09-18T02:32:44.878Z,4.50
2018-09-18T02:34:38.450Z,4.20
2018-09-18T02:35:38.566Z,4.40
2018-09-18T02:37:31.932Z,4.50
2018-09-18T02:38:31.562Z,4.60
2018-09-18T02:40:25.140Z,4.80
2018-09-18T02:41:24.906Z,5.00
2018-09-18T02:43:18.599Z,4.60
2018-09-18T02:44:18.243Z,4.70
2018-09-18T02:46:11.812Z,4.60
2018-09-18T02:47:11.587Z,4.50
2018-09-18T02:49:05.548Z,4.40
2018-09-18T02:50:04.925Z,4.20
2018-09-18T02:51:58.546Z,4.20
2018-09-18T02:52:58.270Z,4.40
2018-09-18T02:54:51.655Z,4.40
2018-09-18T02:55:51.643Z,4.80
2018-09-18T02:57:45.527Z,4.00
2018-09-18T02:58:45.304Z,4.00
2018-09-18T03:00:38.332Z,4.40
2018-09-18T03:01:38.668Z,4.50
2018-09-18T03:03:32.658Z,4.00
2018-09-18T03:04:32.414Z,4.50
2018-09-18T03:06:47.201Z,4.40
2018-09-18T03:07:25.773Z,5.00
2018-09-18T03:09:19.336Z,4.70
2018-09-18T03:10:19.112Z,4.70
2018-09-18T03:12:12.473Z,5.00
2018-09-18T03:13:12.796Z,5.20
2018-09-18T03:15:06.010Z,4.90
2018-09-18T03:16:05.797Z,5.00
2018-09-18T03:17:59.005Z,4.80
2018-09-18T03:18:58.654Z,5.10
2018-09-18T03:20:52.280Z,4.50
2018-09-18T03:21:52.007Z,4.40
2018-09-18T03:23:46.295Z,5.20
2018-09-18T03:24:45.373Z,4.50
2018-09-18T03:26:38.946Z,4.60
2018-09-18T03:27:38.736Z,5.20
2018-09-18T03:29:32.061Z,4.90
2018-09-18T03:30:32.057Z,4.90
2018-09-18T03:33:57.436Z,4.40
2018-09-18T03:34:56.970Z,4.30
2018-09-18T03:36:50.671Z,4.20
2018-09-18T03:37:50.322Z,4.50
2018-09-18T03:39:43.917Z,4.40
2018-09-18T03:40:43.673Z,4.10
2018-09-18T03:42:37.369Z,4.30
2018-09-18T03:43:37.043Z,4.30
2018-09-18T03:45:30.122Z,4.40
2018-09-18T03:46:29.886Z,4.40
2018-09-18T03:48:23.325Z,4.60
2018-09-18T03:49:23.223Z,4.60
2018-09-18T03:51:16.964Z,4.50
2018-09-18T03:52:16.570Z,5.00
2018-09-18T03:54:10.022Z,4.40
2018-09-18T03:55:09.911Z,4.30
2018-09-18T03:57:03.522Z,4.70
2018-09-18T03:58:03.260Z,4.40
2018-09-18T03:59:56.959Z,5.00
2018-09-18T04:00:56.945Z,4.40
2018-09-18T04:02:50.576Z,4.30
2018-09-18T04:03:49.949Z,4.00
2018-09-18T04:05:43.400Z,4.30
2018-09-18T04:06:43.307Z,4.20
2018-09-18T04:10:09.022Z,4.20
2018-09-18T04:11:08.714Z,3.90
2018-09-18T04:13:02.069Z,4.30
2018-09-18T04:14:02.051Z,4.20
2018-09-18T04:15:55.967Z,4.50
2018-09-18T04:16:55.746Z,4.50
2018-09-18T04:18:49.661Z,4.50
2018-09-18T04:19:48.759Z,4.20
2018-09-18T04:21:42.929Z,3.70
2018-09-18T04:22:42.446Z,3.90
2018-09-18T04:24:35.560Z,4.80
2018-09-18T04:25:35.558Z,4.10
2018-09-18T04:27:29.159Z,4.20
2018-09-18T04:28:28.932Z,4.20
2018-09-18T04:30:22.248Z,4.90
2018-09-18T04:31:22.817Z,4.70
2018-09-18T04:33:15.791Z,4.30
2018-09-18T04:34:15.598Z,4.50
2018-09-18T04:36:08.932Z,4.40
2018-09-18T04:37:08.929Z,4.20
2018-09-18T04:39:02.692Z,4.80
2018-09-18T04:40:02.279Z,4.50
2018-09-18T04:43:27.778Z,4.00
2018-09-18T04:44:28.620Z,4.40
2018-09-18T04:46:21.117Z,4.90
2018-09-18T04:47:20.562Z,4.60
2018-09-18T04:49:14.233Z,4.90
2018-09-18T04:50:13.922Z,5.00
2018-09-18T04:52:08.076Z,5.00
2018-09-18T04:53:07.505Z,5.00
2018-09-18T04:55:01.270Z,4.70
2018-09-18T04:56:01.215Z,4.40
2018-09-18T04:57:54.780Z,4.60
2018-09-18T04:58:54.188Z,5.00
2018-09-18T05:00:47.556Z,5.10
2018-09-18T05:01:47.899Z,5.10
2018-09-18T05:03:41.732Z,4.20
2018-09-18T05:04:41.506Z,4.90
2018-09-18T05:06:34.891Z,4.70
2018-09-18T05:07:34.881Z,4.40
2018-09-18T05:09:28.892Z,4.80
2018-09-18T05:10:28.231Z,4.50
2018-09-18T05:12:21.689Z,4.50
2018-09-18T05:13:21.117Z,4.60
2018-09-18T05:15:14.708Z,4.70
2018-09-18T05:16:14.493Z,4.70
2018-09-18T05:18:07.844Z,5.00
2018-09-18T05:19:07.826Z,5.00
2018-09-18T05:21:01.839Z,4.50
2018-09-18T05:22:01.205Z,5.10
2018-09-18T05:23:54.558Z,5.30
2018-09-18T05:24:54.581Z,4.70
2018-09-18T05:26:48.213Z,4.50
2018-09-18T05:27:47.904Z,4.90
2018-09-18T05:29:41.616Z,5.30
2018-09-18T05:30:41.585Z,4.70
2018-09-18T05:32:34.808Z,5.00
2018-09-18T05:33:34.640Z,4.60
2018-09-18T05:35:27.954Z,4.70
2018-09-18T05:36:27.938Z,4.80
2018-09-18T05:38:21.577Z,4.80
2018-09-18T05:39:21.297Z,4.80
2018-09-18T05:41:14.681Z,4.30
2018-09-18T05:42:15.014Z,4.70
2018-09-18T05:44:08.251Z,5.20
2018-09-18T05:45:08.357Z,5.10
2018-09-18T05:47:01.395Z,4.90
2018-09-18T05:48:01.384Z,4.70
2018-09-18T05:49:54.995Z,5.10
2018-09-18T05:50:54.719Z,4.60
2018-09-18T05:52:48.156Z,4.40
2018-09-18T05:53:48.051Z,5.00
2018-09-18T05:55:42.071Z,4.70
2018-09-18T05:56:41.397Z,5.20
2018-09-18T05:58:34.798Z,5.90
2018-09-18T05:59:35.096Z,6.40
2018-09-18T06:01:28.332Z,6.80
2018-09-18T06:02:28.123Z,7.30
2018-09-18T06:04:21.065Z,6.20
2018-09-18T06:05:21.448Z,6.50
2018-09-18T06:07:14.594Z,6.70
2018-09-18T06:08:14.330Z,6.60
2018-09-18T06:10:07.683Z,6.50
2018-09-18T06:11:07.680Z,6.30
2018-09-18T06:13:01.344Z,6.20
2018-09-18T06:14:01.019Z,5.90
2018-09-18T06:15:54.490Z,6.40
2018-09-18T06:16:54.957Z,6.00
2018-09-18T06:19:47.766Z,5.20
2018-09-18T06:21:41.439Z,4.60
2018-09-18T06:22:41.089Z,4.90
2018-09-18T06:24:34.612Z,4.90
2018-09-18T06:25:34.437Z,4.30
2018-09-18T06:27:28.179Z,4.30
2018-09-18T06:28:28.150Z,4.20
2018-09-18T06:30:21.410Z,4.30
2018-09-18T06:31:21.169Z,3.70
2018-09-18T06:33:14.169Z,4.30
2018-09-18T06:34:14.055Z,4.20
2018-09-18T06:36:07.733Z,4.40
2018-09-18T06:37:07.402Z,5.60
2018-09-18T06:39:00.772Z,5.30
2018-09-18T06:40:00.758Z,4.90
2018-09-18T06:41:54.407Z,4.10
2018-09-18T06:42:54.131Z,4.60
2018-09-18T06:44:47.830Z,4.80
2018-09-18T06:45:47.812Z,5.00
2018-09-18T06:47:41.081Z,5.40
2018-09-18T06:48:40.715Z,6.10
2018-09-18T06:50:33.726Z,4.90
2018-09-18T06:51:33.718Z,4.70
2018-09-18T06:53:27.395Z,6.10
2018-09-18T06:54:27.166Z,5.80
2018-09-18T06:56:20.550Z,5.60
2018-09-18T06:57:20.488Z,5.60
2018-09-18T06:59:14.073Z,5.10
2018-09-18T07:00:13.817Z,6.00
2018-09-18T07:02:07.260Z,4.80
2018-09-18T07:03:07.183Z,5.20
2018-09-18T07:05:01.537Z,5.60
2018-09-18T07:06:01.712Z,5.00
2018-09-18T07:08:54.583Z,5.20
2018-09-18T07:10:48.139Z,5.10
2018-09-18T07:11:47.934Z,4.80
2018-09-18T07:13:41.010Z,4.70
2018-09-18T07:14:40.968Z,4.90
2018-09-18T07:16:34.597Z,5.20
2018-09-18T07:17:34.326Z,5.10
2018-09-18T07:19:27.750Z,5.40
2018-09-18T07:20:27.728Z,5.30
2018-09-18T07:22:21.252Z,5.60
2018-09-18T07:23:21.103Z,5.80
2018-09-18T07:25:14.431Z,5.20
2018-09-18T07:26:14.754Z,5.20
2018-09-18T07:28:08.004Z,4.90
2018-09-18T07:29:07.777Z,4.90
2018-09-18T07:31:01.600Z,5.10
2018-09-18T07:32:01.127Z,4.40
2018-09-18T07:33:55.120Z,4.50
2018-09-18T07:34:54.472Z,4.20
2018-09-18T07:36:47.821Z,4.60
2018-09-18T07:37:48.152Z,4.90
2018-09-18T07:39:41.671Z,5.80
2018-09-18T07:40:41.176Z,5.40
2018-09-18T07:42:35.460Z,6.40
2018-09-18T07:43:34.564Z,5.50
2018-09-18T07:45:28.057Z,5.70
2018-09-18T07:46:28.216Z,5.20
2018-09-18T07:48:20.792Z,4.40
2018-09-18T07:49:20.750Z,4.30
2018-09-18T07:51:14.350Z,4.90
2018-09-18T07:52:14.099Z,4.90
2018-09-18T07:54:07.492Z,4.40
2018-09-18T07:55:07.811Z,4.00
2018-09-18T07:57:01.078Z,4.50
2018-09-18T07:58:00.846Z,4.20
2018-09-18T07:59:54.630Z,3.90
2018-09-18T08:00:54.245Z,3.70
2018-09-18T08:02:47.825Z,3.70
2018-09-18T08:03:47.971Z,4.20
2018-09-18T08:05:41.044Z,4.50
2018-09-18T08:06:40.957Z,3.80
2018-09-18T08:08:34.535Z,3.60
2018-09-18T08:09:34.328Z,3.90
2018-09-18T08:11:27.674Z,4.10
2018-09-18T08:14:21.280Z,3.80
2018-09-18T08:15:21.048Z,4.40
2018-09-18T08:17:14.510Z,3.90
2018-09-18T08:18:14.391Z,3.60
2018-09-18T08:20:08.044Z,3.90
2018-09-18T08:21:07.754Z,3.90
2018-09-18T08:23:01.185Z,3.90
2018-09-18T08:24:01.156Z,3.60
2018-09-18T08:25:54.672Z,3.80
2018-09-18T08:26:54.504Z,4.10
2018-09-18T08:28:47.949Z,4.30
2018-09-18T08:31:20.444Z,3.60
2018-09-18T08:32:20.378Z,3.90
2018-09-18T08:34:13.392Z,2.80
2018-09-18T08:35:13.339Z,3.50
2018-09-18T08:37:06.963Z,3.80
2018-09-18T08:38:06.787Z,3.60
2018-09-18T08:40:01.713Z,3.50
2018-09-18T08:41:00.460Z,3.30
2018-09-18T08:42:54.150Z,3.60
2018-09-18T08:43:53.462Z,3.50
2018-09-18T08:45:47.249Z,3.80
2018-09-18T08:46:46.397Z,3.50
2018-09-18T08:48:39.861Z,3.30
2018-09-18T08:49:39.765Z,3.30
2018-09-18T08:51:32.685Z,3.50
2018-09-18T08:52:32.631Z,4.40
2018-09-18T08:54:26.351Z,3.80
2018-09-18T08:55:25.612Z,3.60
2018-09-18T08:57:18.588Z,3.50
2018-09-18T08:58:18.555Z,3.40
2018-09-18T09:00:11.815Z,4.00
2018-09-18T09:01:11.540Z,3.80
2018-09-18T09:03:04.974Z,3.40
2018-09-18T09:04:04.507Z,3.90
2018-09-18T09:05:58.424Z,3.80
2018-09-18T09:06:58.211Z,3.70
2018-09-18T09:08:51.731Z,3.20
2018-09-18T09:09:51.551Z,3.10
2018-09-18T09:11:45.400Z,3.80
2018-09-18T09:12:44.918Z,3.90
2018-09-18T09:14:38.659Z,3.30
2018-09-18T09:15:38.331Z,3.20
2018-09-18T09:17:31.828Z,3.70
2018-09-18T09:18:31.668Z,3.20
2018-09-18T09:20:24.977Z,4.00
2018-09-18T09:21:25.391Z,4.00
2018-09-18T09:23:18.608Z,2.80
2018-09-18T09:24:18.663Z,3.00
2018-09-18T09:26:11.660Z,2.70
2018-09-18T09:27:11.652Z,3.10
2018-09-18T09:29:05.512Z,3.10
2018-09-18T09:30:05.054Z,3.70
2018-09-18T09:31:58.822Z,3.20
2018-09-18T09:32:58.321Z,3.40
2018-09-18T09:34:52.227Z,3.10
2018-09-18T09:35:51.690Z,3.00
2018-09-18T09:37:45.020Z,3.50
2018-09-18T09:38:45.415Z,3.00
2018-09-18T09:40:38.526Z,3.50
2018-09-18T09:41:38.350Z,3.10
2018-09-18T09:43:31.794Z,3.50
2018-09-18T09:44:31.696Z,3.90
2018-09-18T09:46:25.240Z,2.70
2018-09-18T09:47:25.069Z,2.80
2018-09-18T09:49:18.497Z,3.30
2018-09-18T09:50:18.441Z,3.30
2018-09-18T09:52:12.395Z,3.10
2018-09-18T09:53:11.799Z,3.10
2018-09-18T09:55:05.526Z,3.30
2018-09-18T09:56:05.151Z,3.20
2018-09-18T09:57:58.816Z,2.90
2018-09-18T09:58:58.896Z,3.10
2018-09-18T10:00:51.993Z,2.80
2018-09-18T10:01:51.872Z,2.80
2018-09-18T10:03:45.793Z,3.00
2018-09-18T10:04:45.578Z,3.10
2018-09-18T10:06:38.676Z,3.00
2018-09-18T10:07:38.579Z,3.20
2018-09-18T10:08:38.553Z,2.70
2018-09-18T10:09:38.540Z,2.80
2018-09-18T10:10:38.607Z,2.80
2018-09-18T10:11:38.534Z,2.80
2018-09-18T10:12:38.870Z,2.60
2018-09-18T10:13:38.546Z,2.90
2018-09-18T10:14:38.535Z,2.90
2018-09-18T10:15:38.914Z,2.80
2018-09-18T10:16:38.492Z,3.00
2018-09-18T10:17:38.825Z,2.50
2018-09-18T10:18:39.077Z,2.60
2018-09-18T10:19:38.825Z,2.80
2018-09-18T10:20:38.455Z,3.00
2018-09-18T10:21:38.473Z,3.10
2018-09-18T10:22:38.787Z,2.70
2018-09-18T10:23:38.474Z,3.10
2018-09-18T10:24:38.451Z,2.60
2018-09-18T10:25:38.415Z,3.30
2018-09-18T10:26:38.774Z,2.80
2018-09-18T10:27:38.419Z,2.70
2018-09-18T10:28:38.423Z,2.60
2018-09-18T10:29:38.391Z,3.20
2018-09-18T10:30:38.392Z,2.70
2018-09-18T10:31:38.716Z,3.10
2018-09-18T10:32:38.370Z,3.40
2018-09-18T10:33:38.380Z,2.80
2018-09-18T10:34:38.358Z,2.80
2018-09-18T10:35:38.709Z,2.90
2018-09-18T10:36:38.354Z,3.00
2018-09-18T10:37:38.689Z,2.70
2018-09-18T10:38:38.306Z,2.50
2018-09-18T10:39:38.317Z,3.20
2018-09-18T10:40:38.638Z,2.90
2018-09-18T10:41:38.311Z,2.90
2018-09-18T10:42:38.288Z,2.50
2018-09-18T10:43:38.276Z,2.60
2018-09-18T10:44:38.628Z,3.00
2018-09-18T10:45:38.603Z,2.80
2018-09-18T10:46:38.622Z,3.00
2018-09-18T10:47:38.241Z,3.20
2018-09-18T10:48:38.236Z,2.40
2018-09-18T10:49:38.961Z,2.90
2018-09-18T10:50:38.219Z,2.60
2018-09-18T10:51:38.219Z,2.80
2018-09-18T10:52:38.200Z,3.20
2018-09-18T10:53:38.228Z,2.50
2018-09-18T10:54:38.197Z,2.60
2018-09-18T10:55:38.531Z,2.80
2018-09-18T10:56:38.178Z,2.60
2018-09-18T10:57:38.508Z,2.80
2018-09-18T10:58:38.499Z,2.50
2018-09-18T10:59:38.142Z,2.50
2018-09-18T11:00:38.169Z,2.80
2018-09-18T11:01:38.157Z,2.70
2018-09-18T11:02:38.122Z,2.70
2018-09-18T11:03:38.142Z,2.80
2018-09-18T11:04:38.109Z,2.40
2018-09-18T11:05:38.109Z,2.80
2018-09-18T11:06:38.442Z,2.50
2018-09-18T11:07:38.156Z,2.70
2018-09-18T11:08:38.426Z,2.50
2018-09-18T11:09:38.465Z,2.50
2018-09-18T11:11:38.069Z,2.90
2018-09-18T11:12:38.077Z,2.70
2018-09-18T11:13:38.042Z,2.50
2018-09-18T11:14:38.420Z,2.50
2018-09-18T11:15:38.119Z,2.60
2018-09-18T11:16:38.027Z,2.80
2018-09-18T11:17:38.364Z,3.30
2018-09-18T11:18:38.090Z,3.00
2018-09-18T11:19:38.088Z,2.60
2018-09-18T11:20:37.984Z,2.70
2018-09-18T11:21:38.402Z,2.30
2018-09-18T11:22:37.972Z,2.70
2018-09-18T11:23:38.028Z,2.50
2018-09-18T11:24:38.290Z,2.60
2018-09-18T11:25:37.942Z,2.60
2018-09-18T11:26:37.932Z,2.30
2018-09-18T11:27:38.272Z,2.70
2018-09-18T11:28:37.917Z,2.60
2018-09-18T11:29:38.252Z,2.60
2018-09-18T11:30:37.920Z,2.30
2018-09-18T11:31:37.917Z,2.80
2018-09-18T11:32:38.240Z,2.70
2018-09-18T11:33:37.892Z,3.10
2018-09-18T11:34:38.227Z,2.70
2018-09-18T11:35:37.864Z,2.50
2018-09-18T11:36:37.864Z,3.30
2018-09-18T11:37:37.848Z,2.80
2018-09-18T11:38:37.852Z,2.90
2018-09-18T11:39:37.856Z,2.80
2018-09-18T11:40:38.162Z,2.40
2018-09-18T11:41:37.816Z,2.50
2018-09-18T11:42:38.162Z,2.70
2018-09-18T11:43:37.807Z,2.60
2018-09-18T11:44:37.791Z,2.40
2018-09-18T11:45:37.828Z,2.70
2018-09-18T11:46:37.803Z,2.30
2018-09-18T11:47:37.768Z,2.80
2018-09-18T11:48:37.757Z,2.60
2018-09-18T11:49:38.111Z,2.50
2018-09-18T11:50:38.079Z,2.50
2018-09-18T11:51:37.734Z,2.80
2018-09-18T11:52:37.729Z,2.90
2018-09-18T11:53:37.770Z,3.30
2018-09-18T11:54:38.051Z,2.50
2018-09-18T11:55:37.695Z,2.80
2018-09-18T11:56:37.754Z,2.70
2018-09-18T11:57:38.045Z,2.60
2018-09-18T11:58:37.685Z,2.70
2018-09-18T11:59:37.679Z,3.00
2018-09-18T12:00:37.716Z,2.90
2018-09-18T12:01:38.010Z,3.00
2018-09-18T12:02:37.663Z,3.60
2018-09-18T12:03:37.651Z,3.20
2018-09-18T12:04:37.684Z,3.30
2018-09-18T12:05:37.978Z,3.60
2018-09-18T12:06:37.954Z,3.90
2018-09-18T12:07:37.977Z,3.50
2018-09-18T12:08:37.966Z,3.70
2018-09-18T12:09:37.619Z,3.20
2018-09-18T12:10:37.586Z,3.40
2018-09-18T12:11:37.576Z,3.90
2018-09-18T12:12:37.572Z,3.40
2018-09-18T12:13:37.903Z,3.30
2018-09-18T12:14:37.558Z,3.70
2018-09-18T12:15:37.545Z,4.50
2018-09-18T12:16:37.894Z,3.90
2018-09-18T12:17:37.553Z,3.80
2018-09-18T12:18:37.525Z,3.90
2018-09-18T12:19:37.872Z,4.30
2018-09-18T12:20:37.840Z,4.00
2018-09-18T12:21:37.494Z,3.90
2018-09-18T12:22:37.495Z,4.50
2018-09-18T12:23:37.488Z,4.20
2018-09-18T12:24:37.498Z,3.80
2018-09-18T12:25:37.798Z,4.60
2018-09-18T12:26:37.484Z,3.90
2018-09-18T12:27:37.499Z,4.30
2018-09-18T12:28:37.574Z,3.80
2018-09-18T12:29:37.461Z,4.00
2018-09-18T12:30:37.441Z,3.70
2018-09-18T12:31:37.408Z,4.10
2018-09-18T12:32:37.407Z,4.00
2018-09-18T12:33:37.430Z,4.50
2018-09-18T12:34:37.391Z,4.30
2018-09-18T12:35:37.803Z,4.10
2018-09-18T12:36:37.718Z,3.90
2018-09-18T12:37:37.363Z,4.00
2018-09-18T12:38:37.380Z,4.70
2018-09-18T12:39:37.689Z,3.90
2018-09-18T12:40:37.345Z,4.50
2018-09-18T12:41:37.877Z,4.50
2018-09-18T12:42:38.238Z,4.70
2018-09-18T12:43:37.344Z,4.50
2018-09-18T12:44:37.654Z,4.50
2018-09-18T12:45:37.301Z,4.20
2018-09-18T12:46:37.293Z,4.70
2018-09-18T12:47:37.316Z,4.30
2018-09-18T12:48:37.641Z,4.40
2018-09-18T12:49:37.673Z,4.40
2018-09-18T12:50:37.359Z,4.70
2018-09-18T12:51:37.244Z,4.50
2018-09-18T12:52:37.610Z,4.60
2018-09-18T12:53:37.289Z,4.70
2018-09-18T12:54:37.232Z,4.70
2018-09-18T12:55:37.558Z,4.50
2018-09-18T12:56:37.224Z,4.10
2018-09-18T12:57:37.341Z,4.60
2018-09-18T12:58:37.221Z,4.90
2018-09-18T12:59:37.199Z,5.10
2018-09-18T13:00:37.526Z,4.60
2018-09-18T13:01:37.171Z,4.80
2018-09-18T13:02:37.168Z,4.90
2018-09-18T13:03:37.154Z,5.30
2018-09-18T13:04:37.169Z,4.90
2018-09-18T13:05:37.165Z,4.80
2018-09-18T13:06:37.259Z,4.60
2018-09-18T13:07:37.152Z,4.90
2018-09-18T13:08:37.452Z,4.90
2018-09-18T13:09:37.112Z,5.20
2018-09-18T13:10:37.457Z,4.80
2018-09-18T13:11:37.472Z,4.80
2018-09-18T13:12:37.090Z,5.10
2018-09-18T13:13:37.092Z,4.90
2018-09-18T13:14:37.076Z,5.10
2018-09-18T13:15:37.086Z,4.40
2018-09-18T13:16:37.047Z,5.10
2018-09-18T13:17:37.485Z,5.20
2018-09-18T13:18:37.032Z,5.50
2018-09-18T13:19:37.026Z,5.10
2018-09-18T13:20:37.052Z,5.10
2018-09-18T13:21:37.037Z,4.80
2018-09-18T13:22:37.366Z,5.00
2018-09-18T13:23:36.996Z,5.00
2018-09-18T13:24:36.976Z,5.40
2018-09-18T13:25:36.994Z,5.80
2018-09-18T13:26:36.975Z,5.10
2018-09-18T13:27:36.966Z,5.40
2018-09-18T13:28:36.967Z,5.30
2018-09-18T13:29:36.944Z,5.60
2018-09-18T13:30:37.035Z,5.30
2018-09-18T13:31:37.269Z,5.80
2018-09-18T13:32:36.974Z,5.40
2018-09-18T13:33:37.257Z,5.50
2018-09-18T13:34:36.908Z,5.50
2018-09-18T13:35:37.257Z,5.80
2018-09-18T13:36:36.921Z,5.70
2018-09-18T13:37:37.219Z,5.70
2018-09-18T13:38:37.206Z,6.10
2018-09-18T13:39:37.203Z,5.80
2018-09-18T13:40:36.854Z,5.40
2018-09-18T13:41:36.848Z,5.60
2018-09-18T13:42:36.837Z,5.70
2018-09-18T13:43:37.196Z,5.30
2018-09-18T13:44:36.820Z,6.00
2018-09-18T13:45:37.172Z,5.50
2018-09-18T13:46:37.252Z,5.90
2018-09-18T13:47:36.793Z,5.90
2018-09-18T13:48:37.130Z,6.90
2018-09-18T13:49:36.784Z,5.70
2018-09-18T13:50:36.772Z,6.30
2018-09-18T13:51:36.765Z,6.00
2018-09-18T13:52:36.786Z,5.90
2018-09-18T13:53:36.750Z,5.80
2018-09-18T13:54:36.768Z,5.60
2018-09-18T13:55:37.172Z,5.70
2018-09-18T13:56:36.761Z,5.70
2018-09-18T13:57:36.792Z,6.30
2018-09-18T13:58:36.723Z,5.80
2018-09-18T13:59:36.759Z,5.60
2018-09-18T14:00:36.725Z,5.20
2018-09-18T14:01:36.779Z,6.10
2018-09-18T14:02:37.012Z,6.10
2018-09-18T14:03:37.056Z,6.30
2018-09-18T14:04:37.059Z,5.50
2018-09-18T14:05:36.669Z,5.30
2018-09-18T14:06:36.642Z,6.00
2018-09-18T14:07:36.663Z,5.70
2018-09-18T14:08:36.660Z,5.70
2018-09-18T14:09:36.664Z,6.00
2018-09-18T14:10:36.611Z,5.40
2018-09-18T14:11:36.609Z,5.70
2018-09-18T14:12:36.600Z,6.10
2018-09-18T14:13:36.588Z,6.20
2018-09-18T14:14:36.633Z,6.30
2018-09-18T14:15:36.568Z,6.90
2018-09-18T14:16:36.924Z,6.10
2018-09-18T14:17:36.561Z,6.80
2018-09-18T14:18:36.543Z,5.60
2018-09-18T14:19:36.880Z,5.90
2018-09-18T14:20:36.886Z,6.10
2018-09-18T14:21:36.856Z,6.30
2018-09-18T14:22:36.854Z,6.00
2018-09-18T14:23:36.505Z,6.30
2018-09-18T14:24:36.492Z,6.30
2018-09-18T14:25:36.568Z,6.70
2018-09-18T14:26:36.552Z,6.30
2018-09-18T14:27:36.476Z,6.10
2018-09-18T14:28:36.475Z,5.90
2018-09-18T14:29:36.462Z,6.30
2018-09-18T14:30:36.804Z,6.30
2018-09-18T14:31:36.781Z,6.30
2018-09-18T14:32:36.776Z,5.70
2018-09-18T14:33:36.434Z,6.30
2018-09-18T14:34:36.423Z,6.30
2018-09-18T14:35:36.742Z,5.80
2018-09-18T14:36:36.393Z,6.30
2018-09-18T14:37:36.722Z,5.80
2018-09-18T14:38:36.736Z,6.40
2018-09-18T14:39:36.374Z,6.60
2018-09-18T14:40:36.457Z,6.90
2018-09-18T14:41:36.352Z,6.70
2018-09-18T14:42:36.691Z,6.50
2018-09-18T14:43:36.678Z,6.20
2018-09-18T14:44:36.691Z,6.50
2018-09-18T14:45:36.327Z,6.60
2018-09-18T14:46:36.337Z,6.70
2018-09-18T14:47:36.699Z,6.40
2018-09-18T14:48:36.652Z,6.00
2018-09-18T14:49:36.283Z,6.20
2018-09-18T14:50:36.275Z,6.20
2018-09-18T14:51:36.281Z,6.30
2018-09-18T14:52:36.265Z,6.90
2018-09-18T14:53:36.252Z,6.40
2018-09-18T14:54:36.247Z,6.60
2018-09-18T14:55:36.242Z,6.30
2018-09-18T14:56:36.232Z,6.50
2018-09-18T14:57:36.226Z,6.10
2018-09-18T14:58:36.219Z,6.80
2018-09-18T14:59:36.224Z,6.90
2018-09-18T15:00:36.534Z,6.50
2018-09-18T15:01:36.186Z,6.80
2018-09-18T15:02:36.183Z,7.30
2018-09-18T15:03:36.510Z,6.80
2018-09-18T15:04:36.170Z,6.30
2018-09-18T15:05:36.157Z,7.00
2018-09-18T15:06:42.350Z,6.50
2018-09-18T15:07:36.137Z,7.40
2018-09-18T15:08:36.133Z,6.90
2018-09-18T15:09:36.123Z,6.60
2018-09-18T15:10:36.161Z,6.90
2018-09-18T15:11:36.106Z,6.70
2018-09-18T15:12:36.097Z,6.80
2018-09-18T15:13:36.115Z,6.80
2018-09-18T15:14:36.096Z,7.40
2018-09-18T15:15:36.194Z,6.90
2018-09-18T15:16:36.064Z,7.00
2018-09-18T15:17:36.055Z,7.60
2018-09-18T15:18:36.052Z,7.40
2018-09-18T15:19:36.042Z,6.50
2018-09-18T15:20:36.036Z,6.90
2018-09-18T15:21:36.081Z,7.10
2018-09-18T15:22:36.018Z,7.30
2018-09-18T15:23:36.016Z,7.10
2018-09-18T15:24:36.007Z,7.10
2018-09-18T15:25:35.993Z,7.40
2018-09-18T15:26:35.995Z,7.50
2018-09-18T15:27:36.027Z,7.00
2018-09-18T15:28:35.964Z,7.60
2018-09-18T15:29:35.956Z,7.30
2018-09-18T15:30:35.955Z,6.60
2018-09-18T15:31:35.950Z,6.90
2018-09-18T15:32:35.934Z,7.50
2018-09-18T15:33:35.965Z,6.80
2018-09-18T15:34:35.917Z,7.30
2018-09-18T15:35:35.911Z,7.20
2018-09-18T15:36:35.894Z,6.90
2018-09-18T15:37:35.892Z,6.30
2018-09-18T15:38:35.883Z,7.20
2018-09-18T15:39:35.933Z,7.40
2018-09-18T15:40:35.870Z,7.20
2018-09-18T15:41:35.865Z,7.20
2018-09-18T15:42:35.844Z,7.30
2018-09-18T15:43:35.848Z,7.70
2018-09-18T15:44:35.841Z,7.60
2018-09-18T15:45:35.869Z,8.00
2018-09-18T15:46:35.816Z,7.10
2018-09-18T15:47:35.812Z,7.10
2018-09-18T15:48:35.891Z,7.10
2018-09-18T15:49:35.799Z,7.50
2018-09-18T15:50:35.814Z,7.50
2018-09-18T15:51:35.821Z,7.30
2018-09-18T15:52:35.791Z,6.90
2018-09-18T15:53:35.760Z,7.30
2018-09-18T15:54:35.757Z,7.20
2018-09-18T15:55:35.742Z,7.40
2018-09-18T15:56:35.744Z,7.30
2018-09-18T15:57:35.739Z,7.30
2018-09-18T15:58:35.716Z,7.20
2018-09-18T15:59:35.710Z,6.80
2018-09-18T16:00:35.707Z,7.30
2018-09-18T16:01:35.690Z,7.30
2018-09-18T16:02:35.688Z,7.20
2018-09-18T16:03:35.671Z,7.00
2018-09-18T16:04:35.677Z,7.00
2018-09-18T16:05:35.654Z,7.20
2018-09-18T16:06:35.660Z,6.70
2018-09-18T16:07:35.637Z,7.30
2018-09-18T16:08:35.630Z,7.20
2018-09-18T16:09:35.667Z,7.30
2018-09-18T16:10:35.623Z,7.00
2018-09-18T16:11:35.610Z,6.50
2018-09-18T16:12:35.596Z,8.00
2018-09-18T16:13:35.619Z,7.10
2018-09-18T16:14:35.631Z,7.60
2018-09-18T16:16:35.643Z,7.30
2018-09-18T16:17:35.562Z,7.10
2018-09-18T16:18:35.557Z,7.20
2018-09-18T16:19:35.541Z,7.30
2018-09-18T16:20:35.531Z,7.00
2018-09-18T16:21:35.532Z,7.20
2018-09-18T16:22:35.548Z,7.70
2018-09-18T16:23:35.536Z,7.00
2018-09-18T16:24:35.535Z,7.20
2018-09-18T16:25:35.501Z,8.20
2018-09-18T16:26:35.500Z,7.40